Time;durP1;ratioP1;P1;durP2;ratioP2;P2;SDS_P1;SDS_P2;PMS_P1;PMS_P2;Temp;Humidity;BMP_temperature;BMP_pressure;BME280_temperature;BME280_humidity;BME280_pressure;Samples;Min_cycle;Max_cycle;Signal;HPM_P1;HPM_P2
2022/05/14 00:00:50;;;;;;;11.73;2.93;;;;;;;;;;5024986;28;20690;-69
2022/05/14 00:03:17;;;;;;;8.60;2.30;;;;;;;;;;5010729;28;20202;-68
2022/05/14 00:05:44;;;;;;;9.30;2.17;;;;;;;;;;4993126;28;20560;-68
2022/05/14 00:08:11;;;;;;;6.83;2.03;;;;;;;;;;5010194;28;20193;-68
2022/05/14 00:13:23;;;;;;;8.17;2.40;;;;;;;;;;5009919;28;20226;-68
2022/05/14 00:15:50;;;;;;;8.63;2.90;;;;;;;;;;5009539;28;20195;-68
2022/05/14 00:18:17;;;;;;;9.93;2.40;;;;;;;;;;5000142;28;20199;-68
2022/05/14 00:20:43;;;;;;;5.67;2.03;;;;;;;;;;5010199;28;20739;-68
2022/05/14 00:23:10;;;;;;;6.00;2.10;;;;;;;;;;5009829;28;20212;-68
2022/05/14 00:25:37;;;;;;;8.47;2.43;;;;;;;;;;4993100;28;20738;-68
2022/05/14 00:28:03;;;;;;;9.60;2.40;;;;;;;;;;4992196;28;20212;-67
2022/05/14 00:30:31;;;;;;;8.83;2.37;;;;;;;;;;5010345;28;20776;-69
2022/05/14 00:32:58;;;;;;;12.87;2.70;;;;;;;;;;4993154;28;20572;-68
2022/05/14 00:35:25;;;;;;;7.93;2.20;;;;;;;;;;5003486;28;20196;-67
2022/05/14 00:37:51;;;;;;;9.97;2.50;;;;;;;;;;5029352;28;20215;-68
2022/05/14 00:40:26;;;;;;;8.30;2.47;;;;;;;;;;5042499;28;20197;-68
2022/05/14 00:42:53;;;;;;;8.90;2.90;;;;;;;;;;5049758;28;20190;-68
2022/05/14 00:45:19;;;;;;;12.67;2.63;;;;;;;;;;5032160;28;20203;-68
2022/05/14 00:47:48;;;;;;;10.43;2.83;;;;;;;;;;5031598;28;20202;-68
2022/05/14 00:50:24;;;;;;;8.87;2.37;;;;;;;;;;5025098;28;20176;-68
2022/05/14 00:52:52;;;;;;;7.97;2.20;;;;;;;;;;5029012;28;20211;-68
2022/05/14 00:55:19;;;;;;;6.87;1.90;;;;;;;;;;5011372;28;20217;-68
2022/05/14 00:57:46;;;;;;;9.80;2.40;;;;;;;;;;5012033;28;20290;-68
2022/05/14 01:00:15;;;;;;;7.53;2.10;;;;;;;;;;4995687;28;20221;-68
2022/05/14 01:02:41;;;;;;;9.17;2.73;;;;;;;;;;5011449;28;20270;-69
2022/05/14 01:05:09;;;;;;;7.97;2.43;;;;;;;;;;5028892;28;20218;-68
2022/05/14 01:07:37;;;;;;;5.17;1.90;;;;;;;;;;5011660;28;20554;-70
2022/05/14 01:10:05;;;;;;;6.50;2.00;;;;;;;;;;4995100;28;20215;-68
2022/05/14 01:12:32;;;;;;;7.23;2.07;;;;;;;;;;5011524;28;20221;-68
2022/05/14 01:15:06;;;;;;;11.03;2.37;;;;;;;;;;5011167;28;20223;-68
2022/05/14 01:17:33;;;;;;;9.00;2.27;;;;;;;;;;5011573;28;20237;-68
2022/05/14 01:20:00;;;;;;;6.57;1.97;;;;;;;;;;5027580;28;20210;-68
2022/05/14 01:22:49;;;;;;;8.37;2.33;;;;;;;;;;5011047;28;20289;-68
2022/05/14 01:28:09;;;;;;;7.80;2.13;;;;;;;;;;4991607;28;20227;-68
2022/05/14 01:30:42;;;;;;;4.47;1.73;;;;;;;;;;4991934;28;20204;-68
2022/05/14 01:33:09;;;;;;;7.80;1.90;;;;;;;;;;4991405;28;20695;-69
2022/05/14 01:35:42;;;;;;;6.67;1.93;;;;;;;;;;5007298;28;20219;-69
2022/05/14 01:38:10;;;;;;;7.27;1.87;;;;;;;;;;4990931;28;20285;-68
2022/05/14 01:40:36;;;;;;;7.53;1.97;;;;;;;;;;5009356;28;20193;-68
2022/05/14 01:43:03;;;;;;;9.27;2.03;;;;;;;;;;5009909;28;20196;-68
2022/05/14 01:45:48;;;;;;;8.07;1.77;;;;;;;;;;4991527;28;20317;-68
2022/05/14 01:48:15;;;;;;;6.47;1.87;;;;;;;;;;5007643;28;20200;-68
2022/05/14 01:50:42;;;;;;;8.07;2.30;;;;;;;;;;4990873;28;20196;-69
2022/05/14 01:53:09;;;;;;;10.37;2.60;;;;;;;;;;5007139;28;20271;-68
2022/05/14 01:55:36;;;;;;;6.33;1.90;;;;;;;;;;4991271;28;20173;-67
2022/05/14 01:58:36;;;;;;;8.40;2.10;;;;;;;;;;5007047;28;20198;-68
2022/05/14 02:00:54;;;;;;;8.57;2.20;;;;;;;;;;4994256;28;20192;-68
2022/05/14 02:03:21;;;;;;;8.00;2.40;;;;;;;;;;4991510;28;20390;-68
2022/05/14 02:05:48;;;;;;;6.57;2.20;;;;;;;;;;4999503;28;20184;-68
2022/05/14 02:08:15;;;;;;;9.17;2.37;;;;;;;;;;5010639;28;20582;-68
2022/05/14 02:10:41;;;;;;;5.47;1.90;;;;;;;;;;5026588;28;20567;-68
2022/05/14 02:13:26;;;;;;;7.17;1.80;;;;;;;;;;5013015;28;20218;-68
2022/05/14 02:15:53;;;;;;;10.90;2.57;;;;;;;;;;5010464;28;20183;-68
2022/05/14 02:18:38;;;;;;;9.80;2.13;;;;;;;;;;5028347;28;20180;-69
2022/05/14 02:21:05;;;;;;;9.27;2.30;;;;;;;;;;5027926;28;20550;-68
2022/05/14 02:23:50;;;;;;;9.57;2.63;;;;;;;;;;5009962;28;20191;-68
2022/05/14 02:26:17;;;;;;;8.07;1.97;;;;;;;;;;4994536;28;20189;-68
2022/05/14 02:28:44;;;;;;;10.83;2.27;;;;;;;;;;4994045;28;20200;-68
2022/05/14 02:31:10;;;;;;;9.80;2.60;;;;;;;;;;5009812;28;20198;-68
2022/05/14 02:33:37;;;;;;;7.83;2.47;;;;;;;;;;5010706;28;20563;-68
2022/05/14 02:36:05;;;;;;;10.03;2.60;;;;;;;;;;5010071;28;20214;-68
2022/05/14 02:38:32;;;;;;;5.80;2.13;;;;;;;;;;5027923;28;20219;-69
2022/05/14 02:41:16;;;;;;;12.73;2.57;;;;;;;;;;5008268;28;20249;-68
2022/05/14 02:43:44;;;;;;;6.17;2.03;;;;;;;;;;5006778;28;20180;-69
2022/05/14 02:46:12;;;;;;;6.40;2.03;;;;;;;;;;4990236;28;20227;-69
2022/05/14 02:48:40;;;;;;;10.17;2.10;;;;;;;;;;5008259;28;20711;-70
2022/05/14 02:51:07;;;;;;;7.33;2.30;;;;;;;;;;4991063;28;20286;-69
2022/05/14 02:53:34;;;;;;;9.93;2.20;;;;;;;;;;5012042;28;20208;-70
2022/05/14 02:56:01;;;;;;;10.17;2.50;;;;;;;;;;5011702;28;20188;-69
2022/05/14 03:01:15;;;;;;;7.17;2.20;;;;;;;;;;5012327;28;20543;-69
2022/05/14 03:03:42;;;;;;;8.37;2.23;;;;;;;;;;5011071;28;20191;-70
2022/05/14 03:06:09;;;;;;;7.60;2.23;;;;;;;;;;4977924;28;20196;-69
2022/05/14 03:08:36;;;;;;;5.33;2.00;;;;;;;;;;5011694;28;20195;-70
2022/05/14 03:11:03;;;;;;;8.10;2.17;;;;;;;;;;4993946;28;20606;-70
2022/05/14 03:13:30;;;;;;;6.90;2.23;;;;;;;;;;5010398;28;20206;-69
2022/05/14 03:15:57;;;;;;;10.57;2.10;;;;;;;;;;4994280;28;20556;-69
2022/05/14 03:18:25;;;;;;;9.87;2.17;;;;;;;;;;4978249;28;20188;-70
2022/05/14 03:20:52;;;;;;;13.97;2.37;;;;;;;;;;4994202;28;20197;-69
2022/05/14 03:23:18;;;;;;;11.13;2.27;;;;;;;;;;5010269;28;20292;-69
2022/05/14 03:25:46;;;;;;;8.33;2.03;;;;;;;;;;5009869;28;20209;-69
2022/05/14 03:28:12;;;;;;;8.83;2.37;;;;;;;;;;4978418;28;20958;-70
2022/05/14 03:30:40;;;;;;;8.50;2.00;;;;;;;;;;5026317;28;20208;-70
2022/05/14 03:33:07;;;;;;;9.97;2.57;;;;;;;;;;5011273;28;20299;-68
2022/05/14 03:35:34;;;;;;;8.67;2.13;;;;;;;;;;4993542;28;20605;-68
2022/05/14 03:38:01;;;;;;;6.77;2.00;;;;;;;;;;5009507;28;20239;-68
2022/05/14 03:40:28;;;;;;;10.57;2.17;;;;;;;;;;5016184;28;20191;-68
2022/05/14 03:42:55;;;;;;;10.43;2.53;;;;;;;;;;5050946;28;20531;-68
2022/05/14 03:45:22;;;;;;;7.43;2.23;;;;;;;;;;5032815;28;20581;-69
2022/05/14 03:47:50;;;;;;;6.97;2.37;;;;;;;;;;5026404;28;20209;-68
2022/05/14 03:50:16;;;;;;;9.03;2.70;;;;;;;;;;5030695;28;20251;-68
2022/05/14 03:52:43;;;;;;;12.03;2.30;;;;;;;;;;5012104;28;20250;-68
2022/05/14 03:55:10;;;;;;;8.60;2.70;;;;;;;;;;5029343;28;20198;-67
2022/05/14 03:57:37;;;;;;;9.80;2.70;;;;;;;;;;5030517;28;20531;-68
2022/05/14 04:00:07;;;;;;;5.97;2.17;;;;;;;;;;5030084;28;20558;-68
2022/05/14 04:02:38;;;;;;;8.20;3.13;;;;;;;;;;5005495;28;20207;-68
2022/05/14 04:05:05;;;;;;;7.67;2.50;;;;;;;;;;5023827;28;20296;-69
2022/05/14 04:07:32;;;;;;;7.70;2.50;;;;;;;;;;5024788;28;20290;-68
2022/05/14 04:09:59;;;;;;;6.07;2.50;;;;;;;;;;5014459;28;20666;-68
2022/05/14 04:12:31;;;;;;;9.73;2.90;;;;;;;;;;5014157;28;20201;-68
2022/05/14 04:14:58;;;;;;;10.00;3.33;;;;;;;;;;5010704;28;20292;-69
2022/05/14 04:17:25;;;;;;;6.07;2.30;;;;;;;;;;5023831;28;20769;-70
2022/05/14 04:19:54;;;;;;;5.97;2.40;;;;;;;;;;5012211;28;20187;-69
2022/05/14 04:22:22;;;;;;;5.80;2.37;;;;;;;;;;5012395;28;20223;-68
2022/05/14 04:24:49;;;;;;;9.43;2.67;;;;;;;;;;5024219;28;20772;-69
2022/05/14 04:27:16;;;;;;;9.63;2.77;;;;;;;;;;5017306;28;20200;-69
2022/05/14 04:29:43;;;;;;;10.20;2.90;;;;;;;;;;5010886;28;20200;-70
2022/05/14 04:32:11;;;;;;;10.37;2.80;;;;;;;;;;5012526;28;20207;-70
2022/05/14 04:34:40;;;;;;;11.73;2.73;;;;;;;;;;5007615;28;20223;-69
2022/05/14 04:37:07;;;;;;;12.17;3.00;;;;;;;;;;5027873;28;20306;-69
2022/05/14 04:39:34;;;;;;;10.57;2.60;;;;;;;;;;5043529;28;20540;-69
2022/05/14 04:42:02;;;;;;;10.67;2.30;;;;;;;;;;5020474;28;20310;-70
2022/05/14 04:44:29;;;;;;;7.80;2.87;;;;;;;;;;5000854;28;20191;-68
2022/05/14 04:46:56;;;;;;;6.70;2.57;;;;;;;;;;5004588;28;20195;-68
2022/05/14 04:49:23;;;;;;;9.10;2.70;;;;;;;;;;5018758;28;20187;-69
2022/05/14 04:51:50;;;;;;;12.53;2.90;;;;;;;;;;5042858;28;20190;-71
2022/05/14 04:54:18;;;;;;;6.10;2.87;;;;;;;;;;5018128;28;20222;-69
2022/05/14 04:56:44;;;;;;;10.53;2.80;;;;;;;;;;5019196;28;20183;-68
2022/05/14 04:59:11;;;;;;;10.77;2.73;;;;;;;;;;5032597;28;20195;-68
2022/05/14 05:01:38;;;;;;;10.63;2.47;;;;;;;;;;5018722;28;20191;-69
2022/05/14 05:04:05;;;;;;;8.43;2.47;;;;;;;;;;5012426;28;20300;-69
2022/05/14 05:06:32;;;;;;;11.60;3.20;;;;;;;;;;5022589;28;20222;-70
2022/05/14 05:08:59;;;;;;;7.37;2.57;;;;;;;;;;5043278;28;20302;-69
2022/05/14 05:11:26;;;;;;;11.67;2.90;;;;;;;;;;5018370;28;20204;-68
2022/05/14 05:13:53;;;;;;;8.83;2.80;;;;;;;;;;5039282;28;20230;-69
2022/05/14 05:16:20;;;;;;;10.53;2.93;;;;;;;;;;5047855;28;20167;-68
2022/05/14 05:18:46;;;;;;;10.07;2.63;;;;;;;;;;5042786;28;20191;-70
2022/05/14 05:21:14;;;;;;;9.00;2.57;;;;;;;;;;5035767;28;20199;-68
2022/05/14 05:23:41;;;;;;;10.87;2.60;;;;;;;;;;5031211;28;20191;-68
2022/05/14 05:26:08;;;;;;;10.00;2.37;;;;;;;;;;5038436;28;20233;-70
2022/05/14 05:28:35;;;;;;;10.63;2.87;;;;;;;;;;5041456;28;20194;-69
2022/05/14 05:31:02;;;;;;;9.10;2.50;;;;;;;;;;4999021;28;20183;-68
2022/05/14 05:33:30;;;;;;;6.90;1.87;;;;;;;;;;4994719;28;20199;-68
2022/05/14 05:35:57;;;;;;;11.63;2.80;;;;;;;;;;5037800;28;20558;-69
2022/05/14 05:38:24;;;;;;;10.07;2.40;;;;;;;;;;5018414;28;20522;-67
2022/05/14 05:40:51;;;;;;;9.37;2.30;;;;;;;;;;5034442;28;20265;-70
2022/05/14 05:43:18;;;;;;;9.03;2.27;;;;;;;;;;5035984;28;20248;-69
2022/05/14 05:45:45;;;;;;;11.70;2.80;;;;;;;;;;5040081;28;20195;-70
2022/05/14 05:48:12;;;;;;;11.80;2.90;;;;;;;;;;5011676;28;20222;-70
2022/05/14 05:50:40;;;;;;;10.57;2.80;;;;;;;;;;5016326;28;20210;-69
2022/05/14 05:53:07;;;;;;;8.80;2.30;;;;;;;;;;5011795;28;20190;-70
2022/05/14 05:58:22;;;;;;;13.87;2.80;;;;;;;;;;5010158;28;20250;-70
2022/05/14 06:00:49;;;;;;;10.43;2.47;;;;;;;;;;5033958;28;20187;-70
2022/05/14 06:03:16;;;;;;;8.17;2.73;;;;;;;;;;5032390;28;20191;-71
2022/05/14 06:05:43;;;;;;;11.67;3.03;;;;;;;;;;5011317;28;20694;-70
2022/05/14 06:08:13;;;;;;;11.67;3.03;;;;;;;;;;4991795;28;20253;-70
2022/05/14 06:10:41;;;;;;;11.53;3.10;;;;;;;;;;5012076;28;20190;-69
2022/05/14 06:13:10;;;;;;;9.07;2.67;;;;;;;;;;5031333;28;20919;-68
2022/05/14 06:15:37;;;;;;;13.33;3.20;;;;;;;;;;5014469;28;20271;-69
2022/05/14 06:18:04;;;;;;;11.47;3.40;;;;;;;;;;5008537;28;20219;-69
2022/05/14 06:20:31;;;;;;;9.40;2.90;;;;;;;;;;5023643;28;20206;-72
2022/05/14 06:23:00;;;;;;;11.47;2.83;;;;;;;;;;5012853;28;20203;-70
2022/05/14 06:25:27;;;;;;;8.87;2.90;;;;;;;;;;5039087;28;20205;-70
2022/05/14 06:27:55;;;;;;;9.57;3.57;;;;;;;;;;5041425;28;20730;-69
2022/05/14 06:30:22;;;;;;;11.80;3.20;;;;;;;;;;5021187;28;20190;-69
2022/05/14 06:32:49;;;;;;;7.40;2.63;;;;;;;;;;5046522;28;20438;-69
2022/05/14 06:35:16;;;;;;;7.40;2.23;;;;;;;;;;5017027;28;20688;-69
2022/05/14 06:37:47;;;;;;;10.67;3.03;;;;;;;;;;5027922;28;20253;-69
2022/05/14 06:40:13;;;;;;;12.47;3.10;;;;;;;;;;5028089;28;20309;-69
2022/05/14 06:42:40;;;;;;;14.87;2.97;;;;;;;;;;5026925;28;20297;-69
2022/05/14 06:45:07;;;;;;;10.67;3.10;;;;;;;;;;5010768;28;20195;-69
2022/05/14 06:47:34;;;;;;;12.53;3.30;;;;;;;;;;5010941;28;20214;-69
2022/05/14 06:50:01;;;;;;;14.90;3.43;;;;;;;;;;5025765;28;20187;-69
2022/05/14 06:52:28;;;;;;;11.73;3.67;;;;;;;;;;5023910;28;20203;-69
2022/05/14 06:54:55;;;;;;;11.03;3.10;;;;;;;;;;5010550;28;20214;-69
2022/05/14 06:57:22;;;;;;;14.97;3.43;;;;;;;;;;5026119;28;20263;-69
2022/05/14 06:59:49;;;;;;;12.07;3.70;;;;;;;;;;5028285;28;20880;-70
2022/05/14 07:02:16;;;;;;;15.23;3.80;;;;;;;;;;5027862;28;20179;-69
2022/05/14 07:07:28;;;;;;;12.13;3.77;;;;;;;;;;5028003;28;20214;-70
2022/05/14 07:09:55;;;;;;;10.90;4.10;;;;;;;;;;5024581;28;20301;-69
2022/05/14 07:12:22;;;;;;;13.17;4.50;;;;;;;;;;5010527;28;20202;-69
2022/05/14 07:14:50;;;;;;;11.93;3.97;;;;;;;;;;5029378;28;20594;-67
2022/05/14 07:17:17;;;;;;;15.00;4.33;;;;;;;;;;5034287;28;20593;-68
2022/05/14 07:19:44;;;;;;;17.13;5.50;;;;;;;;;;5034041;28;20195;-68
2022/05/14 07:22:11;;;;;;;13.70;4.23;;;;;;;;;;5034208;28;20188;-68
2022/05/14 07:24:38;;;;;;;15.17;4.90;;;;;;;;;;5016560;28;20536;-68
2022/05/14 07:27:10;;;;;;;13.17;5.37;;;;;;;;;;5034085;28;20226;-68
2022/05/14 07:29:37;;;;;;;14.23;4.60;;;;;;;;;;5016583;28;20360;-68
2022/05/14 07:32:04;;;;;;;14.47;4.47;;;;;;;;;;5033958;28;20274;-68
2022/05/14 07:34:32;;;;;;;12.40;4.17;;;;;;;;;;5033675;28;20226;-68
2022/05/14 07:37:05;;;;;;;17.57;4.70;;;;;;;;;;5015443;28;20200;-68
2022/05/14 07:39:34;;;;;;;14.50;4.83;;;;;;;;;;5037113;28;20523;-68
2022/05/14 07:42:23;;;;;;;13.57;5.03;;;;;;;;;;4996719;28;20169;-74
2022/05/14 07:44:50;;;;;;;13.87;4.90;;;;;;;;;;5030772;28;20202;-69
2022/05/14 07:47:17;;;;;;;14.77;5.53;;;;;;;;;;5036266;28;20220;-69
2022/05/14 07:49:44;;;;;;;16.07;5.47;;;;;;;;;;5040963;28;20902;-68
2022/05/14 07:52:11;;;;;;;17.10;6.00;;;;;;;;;;5019824;28;20238;-69
2022/05/14 07:54:39;;;;;;;17.33;6.07;;;;;;;;;;5010782;28;20316;-70
2022/05/14 07:57:08;;;;;;;15.97;6.23;;;;;;;;;;5031283;28;20219;-69
2022/05/14 07:59:36;;;;;;;16.03;5.60;;;;;;;;;;5009321;28;20237;-66
2022/05/14 08:02:05;;;;;;;11.60;4.97;;;;;;;;;;5029364;28;20875;-66
2022/05/14 08:04:33;;;;;;;14.40;4.33;;;;;;;;;;5028483;28;20214;-66
2022/05/14 08:07:01;;;;;;;15.20;5.33;;;;;;;;;;5029154;28;20226;-63
2022/05/14 08:09:30;;;;;;;14.30;4.23;;;;;;;;;;5031343;28;20723;-64
2022/05/14 08:11:59;;;;;;;14.77;4.33;;;;;;;;;;5030499;28;20223;-66
2022/05/14 08:14:25;;;;;;;14.47;4.43;;;;;;;;;;5029425;28;20301;-63
2022/05/14 08:16:52;;;;;;;16.03;4.53;;;;;;;;;;5033047;28;20302;-66
2022/05/14 08:19:19;;;;;;;14.80;4.50;;;;;;;;;;5031351;28;20195;-67
2022/05/14 08:24:35;;;;;;;5.70;2.77;;;;;;;;;;5028639;28;20190;-64
2022/05/14 08:27:04;;;;;;;12.13;4.40;;;;;;;;;;5028062;28;20221;-66
2022/05/14 08:29:35;;;;;;;14.27;4.03;;;;;;;;;;5031549;28;20200;-65
2022/05/14 08:32:03;;;;;;;13.93;4.50;;;;;;;;;;5035765;28;20875;-66
2022/05/14 08:34:32;;;;;;;11.47;3.80;;;;;;;;;;5031502;28;20239;-65
2022/05/14 08:37:07;;;;;;;9.40;3.47;;;;;;;;;;5015019;28;20681;-65
2022/05/14 08:39:36;;;;;;;11.60;3.70;;;;;;;;;;5040431;28;20892;-63
2022/05/14 08:42:03;;;;;;;14.00;3.60;;;;;;;;;;5017779;28;20298;-66
2022/05/14 08:44:32;;;;;;;14.10;3.70;;;;;;;;;;5009974;28;20191;-65
2022/05/14 08:47:00;;;;;;;13.10;4.67;;;;;;;;;;5016302;28;20203;-68
2022/05/14 08:49:31;;;;;;;12.90;4.20;;;;;;;;;;5040600;28;20600;-67
2022/05/14 08:51:59;;;;;;;13.77;3.50;;;;;;;;;;5040973;28;20314;-66
2022/05/14 08:54:26;;;;;;;16.53;3.97;;;;;;;;;;5037009;28;20219;-65
2022/05/14 08:57:00;;;;;;;14.90;3.33;;;;;;;;;;5015727;28;20707;-65
2022/05/14 08:59:33;;;;;;;16.67;3.83;;;;;;;;;;5017367;28;20198;-66
2022/05/14 09:02:01;;;;;;;12.37;3.57;;;;;;;;;;5015687;28;20187;-67
2022/05/14 09:04:30;;;;;;;13.83;4.17;;;;;;;;;;5040528;28;20251;-65
2022/05/14 09:06:57;;;;;;;13.77;4.03;;;;;;;;;;5038996;28;20187;-66
2022/05/14 09:09:24;;;;;;;10.23;3.33;;;;;;;;;;5046695;28;20246;-67
2022/05/14 09:11:55;;;;;;;11.20;4.00;;;;;;;;;;5049162;28;20217;-66
2022/05/14 09:14:28;;;;;;;8.57;3.47;;;;;;;;;;5048935;28;20187;-67
2022/05/14 09:17:12;;;;;;;11.13;2.73;;;;;;;;;;5049234;28;20264;-66
2022/05/14 09:19:39;;;;;;;14.03;3.50;;;;;;;;;;5048784;28;20191;-63
2022/05/14 09:22:09;;;;;;;9.80;3.70;;;;;;;;;;5038319;28;20853;-65
2022/05/14 09:24:38;;;;;;;13.23;3.90;;;;;;;;;;5009443;28;20660;-65
2022/05/14 09:27:10;;;;;;;12.73;4.30;;;;;;;;;;5008689;28;20203;-63
2022/05/14 09:29:39;;;;;;;11.67;3.00;;;;;;;;;;4991848;28;20556;-63
2022/05/14 09:32:09;;;;;;;13.30;3.77;;;;;;;;;;5009128;28;20207;-63
2022/05/14 09:34:37;;;;;;;10.50;3.10;;;;;;;;;;4991594;28;20247;-65
2022/05/14 09:37:08;;;;;;;12.50;3.07;;;;;;;;;;5008165;28;20232;-66
2022/05/14 09:39:34;;;;;;;10.23;2.70;;;;;;;;;;5031417;28;20229;-65
2022/05/14 09:42:04;;;;;;;11.07;2.93;;;;;;;;;;5030929;28;20245;-66
2022/05/14 09:44:47;;;;;;;11.03;3.30;;;;;;;;;;5048362;28;20716;-66
2022/05/14 09:47:14;;;;;;;9.50;2.90;;;;;;;;;;5009004;28;20455;-65
2022/05/14 09:49:42;;;;;;;8.33;3.10;;;;;;;;;;5008639;28;20218;-63
2022/05/14 09:52:09;;;;;;;8.00;2.30;;;;;;;;;;5005641;28;20226;-64
2022/05/14 09:54:41;;;;;;;9.00;2.70;;;;;;;;;;5009139;28;20192;-64
2022/05/14 09:57:20;;;;;;;10.53;2.60;;;;;;;;;;5008635;28;20302;-64
2022/05/14 10:00:03;;;;;;;8.43;2.77;;;;;;;;;;5008272;28;20203;-64
2022/05/14 10:02:40;;;;;;;8.07;2.80;;;;;;;;;;5007243;28;20259;-64
2022/05/14 10:05:10;;;;;;;10.63;3.00;;;;;;;;;;5017514;28;20203;-63
2022/05/14 10:07:43;;;;;;;8.03;2.57;;;;;;;;;;5022953;28;20195;-64
2022/05/14 10:10:27;;;;;;;13.17;3.00;;;;;;;;;;5009953;28;20258;-63
2022/05/14 10:12:58;;;;;;;5.70;2.30;;;;;;;;;;5011380;28;20667;-63
2022/05/14 10:15:28;;;;;;;9.67;2.80;;;;;;;;;;5008331;28;20212;-63
2022/05/14 10:17:55;;;;;;;10.63;3.27;;;;;;;;;;5008166;28;20287;-63
2022/05/14 10:20:32;;;;;;;8.37;3.07;;;;;;;;;;5011052;28;20992;-62
2022/05/14 10:28:59;;;;;;;9.43;2.93;;;;;;;;;;4993465;28;20267;-63
2022/05/14 10:31:27;;;;;;;10.17;2.53;;;;;;;;;;4990627;28;20196;-62
2022/05/14 10:33:55;;;;;;;7.53;2.07;;;;;;;;;;5024915;28;20238;-63
2022/05/14 10:36:24;;;;;;;13.03;2.90;;;;;;;;;;5010777;28;20230;-63
2022/05/14 10:39:00;;;;;;;7.00;2.30;;;;;;;;;;5023454;28;20212;-62
2022/05/14 10:41:29;;;;;;;7.03;1.87;;;;;;;;;;5020833;28;20203;-64
2022/05/14 10:44:08;;;;;;;10.37;2.00;;;;;;;;;;5012308;28;20571;-64
2022/05/14 10:46:35;;;;;;;8.70;2.33;;;;;;;;;;5020843;28;20652;-63
2022/05/14 10:49:02;;;;;;;9.53;2.53;;;;;;;;;;5019992;28;20945;-64
2022/05/14 10:51:30;;;;;;;9.33;3.00;;;;;;;;;;5012732;28;20201;-62
2022/05/14 10:54:00;;;;;;;8.37;2.33;;;;;;;;;;5021058;28;20305;-65
2022/05/14 10:56:26;;;;;;;7.77;2.10;;;;;;;;;;5024992;28;20218;-63
2022/05/14 10:59:00;;;;;;;6.40;2.30;;;;;;;;;;5021406;28;20269;-62
2022/05/14 11:01:53;;;;;;;8.70;2.50;;;;;;;;;;5015896;28;20206;-62
2022/05/14 11:04:21;;;;;;;10.37;2.40;;;;;;;;;;5022169;28;20191;-62
2022/05/14 11:06:51;;;;;;;9.60;2.40;;;;;;;;;;5026291;28;20187;-62
2022/05/14 11:09:22;;;;;;;8.67;2.50;;;;;;;;;;5020490;28;20214;-64
2022/05/14 11:11:52;;;;;;;9.37;2.60;;;;;;;;;;5023851;28;20187;-63
2022/05/14 11:14:19;;;;;;;10.03;2.53;;;;;;;;;;5030094;28;20192;-63
2022/05/14 11:16:47;;;;;;;15.47;2.10;;;;;;;;;;5031149;28;20941;-58
2022/05/14 11:19:25;;;;;;;8.97;2.13;;;;;;;;;;5031107;28;20827;-59
2022/05/14 11:21:54;;;;;;;7.43;2.27;;;;;;;;;;5030477;28;20671;-60
2022/05/14 11:24:30;;;;;;;9.47;2.53;;;;;;;;;;5011567;28;20191;-59
2022/05/14 11:26:56;;;;;;;7.10;1.93;;;;;;;;;;5011330;28;20832;-60
2022/05/14 11:29:25;;;;;;;7.67;2.00;;;;;;;;;;5010035;28;20266;-59
2022/05/14 11:31:54;;;;;;;8.53;1.80;;;;;;;;;;5011411;28;20275;-59
2022/05/14 11:34:22;;;;;;;7.83;2.23;;;;;;;;;;5010947;28;20283;-59
2022/05/14 11:36:50;;;;;;;10.80;2.57;;;;;;;;;;5011267;28;20351;-59
2022/05/14 11:39:20;;;;;;;8.93;2.27;;;;;;;;;;5020059;28;20541;-59
2022/05/14 11:41:46;;;;;;;8.60;2.07;;;;;;;;;;5050931;28;20190;-59
2022/05/14 11:44:14;;;;;;;8.07;2.23;;;;;;;;;;5050690;28;20901;-59
2022/05/14 11:46:50;;;;;;;8.07;2.60;;;;;;;;;;5047555;28;20225;-59
2022/05/14 11:49:22;;;;;;;9.17;2.50;;;;;;;;;;5050810;28;20536;-59
2022/05/14 11:51:58;;;;;;;7.20;2.23;;;;;;;;;;5050850;28;20190;-59
2022/05/14 11:54:26;;;;;;;7.70;2.00;;;;;;;;;;5050789;28;20198;-59
2022/05/14 11:56:55;;;;;;;9.10;2.50;;;;;;;;;;5050330;28;20238;-60
2022/05/14 11:59:41;;;;;;;8.77;2.33;;;;;;;;;;5032257;28;20892;-59
2022/05/14 12:02:10;;;;;;;18.53;5.60;;;;;;;;;;5010454;28;20290;-59
2022/05/14 12:04:40;;;;;;;9.00;2.13;;;;;;;;;;4996490;28;20254;-59
2022/05/14 12:07:11;;;;;;;10.23;2.37;;;;;;;;;;5030102;28;20890;-59
2022/05/14 12:09:48;;;;;;;8.33;2.20;;;;;;;;;;5013339;28;20233;-59
2022/05/14 12:12:16;;;;;;;10.73;3.13;;;;;;;;;;5030509;28;20183;-59
2022/05/14 12:14:43;;;;;;;8.17;2.23;;;;;;;;;;5030223;28;20655;-59
2022/05/14 12:17:17;;;;;;;9.90;2.50;;;;;;;;;;5012619;28;20242;-59
2022/05/14 12:20:03;;;;;;;6.93;2.70;;;;;;;;;;5015100;28;20225;-59
2022/05/14 12:22:30;;;;;;;10.17;2.30;;;;;;;;;;5012448;28;20878;-59
2022/05/14 12:24:56;;;;;;;14.53;2.50;;;;;;;;;;5009595;28;20852;-59
2022/05/14 12:27:23;;;;;;;7.70;2.23;;;;;;;;;;5010083;28;20216;-59
2022/05/14 12:30:10;;;;;;;9.87;2.93;;;;;;;;;;5010261;28;20203;-59
2022/05/14 12:35:31;;;;;;;113.83;13.63;;;;;;;;;;5009497;28;20208;-59
2022/05/14 12:37:58;;;;;;;18.03;3.00;;;;;;;;;;5008821;28;20220;-60
2022/05/14 12:40:25;;;;;;;25.47;4.23;;;;;;;;;;5019225;28;20540;-59
2022/05/14 12:43:12;;;;;;;12.63;2.90;;;;;;;;;;5010014;28;20516;-59
2022/05/14 12:45:40;;;;;;;10.17;3.03;;;;;;;;;;5010022;28;20902;-59
2022/05/14 12:48:07;;;;;;;9.27;2.87;;;;;;;;;;4992548;28;20220;-59
2022/05/14 12:50:36;;;;;;;10.87;2.70;;;;;;;;;;5009643;28;20293;-59
2022/05/14 12:53:05;;;;;;;10.63;2.90;;;;;;;;;;5009200;28;20223;-59
2022/05/14 12:55:34;;;;;;;12.60;2.30;;;;;;;;;;5009769;28;20211;-59
2022/05/14 12:58:01;;;;;;;13.73;2.33;;;;;;;;;;5009696;28;20282;-59
2022/05/14 13:00:28;;;;;;;7.17;1.90;;;;;;;;;;5009766;28;20223;-59
2022/05/14 13:02:55;;;;;;;9.30;2.53;;;;;;;;;;4992254;28;20206;-59
2022/05/14 13:05:25;;;;;;;8.77;2.27;;;;;;;;;;5026554;28;20270;-59
2022/05/14 13:07:52;;;;;;;12.33;2.27;;;;;;;;;;5028961;28;20210;-59
2022/05/14 13:10:24;;;;;;;6.57;1.73;;;;;;;;;;5029370;28;20993;-59
2022/05/14 13:12:51;;;;;;;7.10;1.90;;;;;;;;;;5028469;28;20246;-59
2022/05/14 13:15:19;;;;;;;9.77;1.90;;;;;;;;;;5011432;28;20291;-59
2022/05/14 13:17:46;;;;;;;7.43;1.77;;;;;;;;;;5027483;28;20217;-59
2022/05/14 13:21:00;;;;;;;11.43;2.23;;;;;;;;;;5028799;28;20542;-59
2022/05/14 13:23:27;;;;;;;9.00;2.60;;;;;;;;;;5025113;28;20192;-59
2022/05/14 13:26:02;;;;;;;11.23;2.17;;;;;;;;;;5022160;28;20191;-59
2022/05/14 13:28:29;;;;;;;6.10;1.97;;;;;;;;;;5028976;28;20189;-59
2022/05/14 13:30:55;;;;;;;6.37;1.90;;;;;;;;;;5028706;28;20192;-59
2022/05/14 13:33:26;;;;;;;7.83;2.03;;;;;;;;;;5029060;28;20195;-59
2022/05/14 13:38:42;;;;;;;9.30;2.17;;;;;;;;;;5010492;28;20607;-59
2022/05/14 13:41:22;;;;;;;9.30;2.20;;;;;;;;;;5008885;28;20677;-59
2022/05/14 13:43:51;;;;;;;13.93;2.03;;;;;;;;;;5023406;28;20199;-60
2022/05/14 13:46:28;;;;;;;12.17;2.00;;;;;;;;;;5027976;28;20183;-59
2022/05/14 13:48:55;;;;;;;8.77;2.20;;;;;;;;;;5028425;28;20199;-58
2022/05/14 13:51:36;;;;;;;8.03;2.07;;;;;;;;;;5010874;28;20188;-59
2022/05/14 13:54:26;;;;;;;12.03;2.63;;;;;;;;;;5010896;28;20199;-59
2022/05/14 13:57:04;;;;;;;9.97;1.90;;;;;;;;;;5021329;28;20750;-59
2022/05/14 13:59:31;;;;;;;9.23;2.13;;;;;;;;;;5028543;28;20208;-59
2022/05/14 14:02:16;;;;;;;6.93;1.70;;;;;;;;;;5011805;28;20253;-59
2022/05/14 14:05:02;;;;;;;5.57;1.83;;;;;;;;;;5008407;28;20172;-59
2022/05/14 14:07:35;;;;;;;7.97;2.27;;;;;;;;;;5008344;28;20189;-59
2022/05/14 14:10:19;;;;;;;6.90;2.10;;;;;;;;;;5008260;28;20198;-59
2022/05/14 14:12:45;;;;;;;8.53;2.33;;;;;;;;;;5008563;28;20877;-59
2022/05/14 14:15:15;;;;;;;8.67;2.53;;;;;;;;;;5008637;28;20543;-59
2022/05/14 14:17:47;;;;;;;9.37;2.57;;;;;;;;;;5008092;28;20211;-59
2022/05/14 14:20:14;;;;;;;9.90;2.27;;;;;;;;;;5008539;28;20219;-59
2022/05/14 14:22:42;;;;;;;9.13;2.20;;;;;;;;;;5007739;28;20208;-59
2022/05/14 14:25:10;;;;;;;10.60;2.00;;;;;;;;;;4991219;28;20266;-59
2022/05/14 14:27:36;;;;;;;7.73;2.70;;;;;;;;;;5007478;28;20184;-59
2022/05/14 14:30:04;;;;;;;10.27;2.30;;;;;;;;;;5008284;28;20659;-59
2022/05/14 14:32:32;;;;;;;11.17;2.67;;;;;;;;;;5008273;28;20678;-59
2022/05/14 14:34:59;;;;;;;10.53;1.90;;;;;;;;;;5007828;28;20262;-59
2022/05/14 14:37:26;;;;;;;9.40;2.20;;;;;;;;;;5007188;28;20243;-59
2022/05/14 14:39:54;;;;;;;13.07;2.33;;;;;;;;;;5027433;28;20214;-59
2022/05/14 14:42:21;;;;;;;11.43;2.10;;;;;;;;;;5030814;28;20574;-60
2022/05/14 14:44:51;;;;;;;7.47;1.57;;;;;;;;;;5047645;28;20593;-59
2022/05/14 14:47:17;;;;;;;11.87;1.97;;;;;;;;;;5049092;28;20187;-60
2022/05/14 14:49:44;;;;;;;12.07;2.37;;;;;;;;;;5051671;28;20183;-60
2022/05/14 14:52:11;;;;;;;8.03;2.43;;;;;;;;;;5046404;28;20210;-60
2022/05/14 14:54:38;;;;;;;20.40;3.20;;;;;;;;;;5012648;28;20192;-60
2022/05/14 14:57:05;;;;;;;11.33;2.23;;;;;;;;;;5027550;28;20280;-67
2022/05/14 14:59:32;;;;;;;11.77;2.43;;;;;;;;;;5030276;28;20321;-60
2022/05/14 15:02:00;;;;;;;10.60;2.03;;;;;;;;;;5031469;28;20306;-60
2022/05/14 15:04:29;;;;;;;9.17;2.17;;;;;;;;;;5013167;28;20196;-60
2022/05/14 15:06:56;;;;;;;13.90;2.63;;;;;;;;;;5024205;28;20566;-60
2022/05/14 15:09:22;;;;;;;10.53;2.77;;;;;;;;;;5030451;28;20201;-59
2022/05/14 15:11:49;;;;;;;10.13;2.50;;;;;;;;;;5030168;28;20298;-59
2022/05/14 15:14:17;;;;;;;9.03;2.20;;;;;;;;;;5017537;28;20187;-60
2022/05/14 15:16:46;;;;;;;11.07;2.30;;;;;;;;;;5023422;28;20281;-59